Time;durP1;ratioP1;P1;durP2;ratioP2;P2;SDS_P1;SDS_P2;PMS_P1;PMS_P2;Temp;Humidity;BMP_temperature;BMP_pressure;BME280_temperature;BME280_humidity;BME280_pressure;Samples;Min_cycle;Max_cycle;Signal;HPM_P1;HPM_P2
2022/07/18 00:01:42;;;;;;;2.05;1.20;;;18.70;43.30;;;;;;929983;151;27302;-76
2022/07/18 00:04:08;;;;;;;2.85;1.40;;;18.60;43.50;;;;;;943524;151;27336;-76
2022/07/18 00:06:35;;;;;;;1.92;1.00;;;18.60;43.80;;;;;;943763;151;27438;-76
2022/07/18 00:09:01;;;;;;;2.65;1.47;;;18.50;43.80;;;;;;943873;151;27370;-76
2022/07/18 00:11:28;;;;;;;2.70;1.10;;;18.50;43.90;;;;;;943785;151;27364;-76
2022/07/18 00:13:55;;;;;;;1.00;1.00;;;18.50;44.00;;;;;;942903;151;29265;-76
2022/07/18 00:16:22;;;;;;;1.22;1.12;;;18.40;44.20;;;;;;943411;150;27310;-76
2022/07/18 00:18:48;;;;;;;1.37;1.10;;;18.40;44.20;;;;;;943403;151;27280;-76
2022/07/18 00:21:14;;;;;;;1.67;1.47;;;18.30;44.40;;;;;;943538;151;27277;-76
2022/07/18 00:23:41;;;;;;;3.00;1.27;;;18.30;44.60;;;;;;944313;150;27967;-76
2022/07/18 00:26:08;;;;;;;1.27;1.17;;;18.20;45.10;;;;;;942601;151;27389;-76
2022/07/18 00:28:34;;;;;;;1.67;1.50;;;18.20;44.70;;;;;;943745;151;27758;-76
2022/07/18 00:31:01;;;;;;;1.40;1.30;;;18.10;44.90;;;;;;945796;148;27336;-76
2022/07/18 00:33:27;;;;;;;1.87;1.30;;;18.10;45.00;;;;;;945465;148;27328;-76
2022/07/18 00:35:54;;;;;;;0.97;0.97;;;18.00;45.10;;;;;;928745;151;27479;-76
2022/07/18 00:38:21;;;;;;;1.23;1.13;;;17.90;45.20;;;;;;928605;151;27472;-76
2022/07/18 00:40:47;;;;;;;2.43;1.30;;;17.90;45.30;;;;;;934292;151;27434;-76
2022/07/18 00:43:14;;;;;;;1.12;1.10;;;17.80;45.40;;;;;;943441;151;27365;-76
2022/07/18 00:45:40;;;;;;;1.00;0.70;;;17.80;45.60;;;;;;944134;150;27393;-76
2022/07/18 00:48:07;;;;;;;1.23;1.03;;;17.70;45.70;;;;;;943056;151;27301;-76
2022/07/18 00:50:33;;;;;;;1.13;0.90;;;17.60;45.80;;;;;;943621;151;27805;-76
2022/07/18 00:53:00;;;;;;;1.00;0.90;;;17.60;45.10;;;;;;943695;149;27377;-76
2022/07/18 00:55:27;;;;;;;1.53;1.33;;;17.50;46.00;;;;;;943898;151;27304;-76
2022/07/18 00:57:53;;;;;;;2.13;1.03;;;17.50;46.20;;;;;;943692;150;27362;-76
2022/07/18 01:03:04;;;;;;;1.00;1.00;;;17.40;46.50;;;;;;938317;152;27543;-76
2022/07/18 01:05:31;;;;;;;1.20;1.13;;;17.30;46.50;;;;;;938291;152;27884;-76
2022/07/18 01:07:57;;;;;;;1.53;1.20;;;17.30;46.80;;;;;;937920;152;27411;-76
2022/07/18 01:10:24;;;;;;;0.90;0.90;;;17.30;47.00;;;;;;938431;151;27369;-76
2022/07/18 01:12:51;;;;;;;2.57;1.20;;;17.20;47.10;;;;;;922707;152;27846;-76
2022/07/18 01:15:17;;;;;;;1.25;1.05;;;17.20;47.20;;;;;;939674;149;27362;-76
2022/07/18 01:17:44;;;;;;;1.57;1.10;;;17.10;47.30;;;;;;937523;150;27800;-76
2022/07/18 01:20:10;;;;;;;2.97;1.20;;;17.10;47.40;;;;;;937588;151;27414;-76
2022/07/18 01:22:38;;;;;;;1.13;0.93;;;17.00;47.60;;;;;;938802;151;27314;-76
2022/07/18 01:25:04;;;;;;;1.50;1.27;;;17.00;47.70;;;;;;930628;149;27314;-76
2022/07/18 01:27:30;;;;;;;1.73;1.00;;;16.90;47.80;;;;;;932497;151;27310;-76
2022/07/18 01:29:57;;;;;;;1.03;1.03;;;16.90;47.90;;;;;;919738;152;27468;-76
2022/07/18 01:32:23;;;;;;;5.07;1.83;;;16.80;48.10;;;;;;930942;151;27413;-76
2022/07/18 01:34:50;;;;;;;1.50;1.40;;;16.80;48.30;;;;;;944536;151;27329;-76
2022/07/18 01:37:17;;;;;;;1.20;1.20;;;16.70;48.30;;;;;;922299;153;27767;-76
2022/07/18 01:39:43;;;;;;;1.23;1.13;;;16.70;48.40;;;;;;937339;150;27394;-76
2022/07/18 01:42:10;;;;;;;1.60;1.50;;;16.60;48.50;;;;;;938387;149;27346;-76
2022/07/18 01:44:36;;;;;;;1.47;1.20;;;16.60;48.60;;;;;;929802;152;27472;-76
2022/07/18 01:47:03;;;;;;;1.40;1.10;;;16.50;48.70;;;;;;932935;152;27302;-76
2022/07/18 01:49:32;;;;;;;1.10;1.00;;;16.50;48.90;;;;;;932713;152;27384;-76
2022/07/18 01:51:58;;;;;;;2.17;1.10;;;16.40;49.00;;;;;;931354;150;27407;-76
2022/07/18 01:54:25;;;;;;;1.30;1.20;;;16.40;49.00;;;;;;931684;150;27399;-76
2022/07/18 01:56:52;;;;;;;1.40;1.30;;;16.40;49.20;;;;;;931448;152;27452;-75
2022/07/18 01:59:18;;;;;;;1.67;1.10;;;16.30;49.30;;;;;;929100;152;27485;-76
2022/07/18 02:01:45;;;;;;;2.37;1.40;;;16.30;49.30;;;;;;926099;152;27390;-76
2022/07/18 02:04:11;;;;;;;3.97;1.50;;;16.30;49.50;;;;;;925349;155;27367;-76
2022/07/18 02:06:38;;;;;;;2.20;1.30;;;16.20;49.50;;;;;;925412;154;27485;-75
2022/07/18 02:09:05;;;;;;;1.83;1.73;;;16.20;49.70;;;;;;925166;155;27292;-76
2022/07/18 02:11:31;;;;;;;1.57;1.47;;;16.20;49.80;;;;;;919731;153;27377;-76
2022/07/18 02:13:58;;;;;;;3.30;1.43;;;16.10;49.90;;;;;;919492;152;27433;-76
2022/07/18 02:16:24;;;;;;;1.67;1.37;;;16.10;50.00;;;;;;923358;153;27498;-76
2022/07/18 02:18:51;;;;;;;2.20;1.20;;;16.10;50.10;;;;;;920605;155;27362;-76
2022/07/18 02:21:18;;;;;;;1.57;1.40;;;16.10;50.20;;;;;;940003;152;27930;-75
2022/07/18 02:23:44;;;;;;;1.77;1.20;;;16.00;50.40;;;;;;928144;154;27280;-76
2022/07/18 02:26:11;;;;;;;2.03;1.43;;;16.00;50.60;;;;;;928329;154;27648;-76
2022/07/18 02:28:37;;;;;;;1.73;1.43;;;15.90;50.70;;;;;;928779;154;27469;-76
2022/07/18 02:31:04;;;;;;;2.00;1.80;;;15.90;50.80;;;;;;929000;154;27487;-76
2022/07/18 02:33:30;;;;;;;1.47;1.37;;;15.90;50.90;;;;;;919180;154;27893;-76
2022/07/18 02:35:57;;;;;;;1.70;1.47;;;15.80;50.90;;;;;;922910;155;27440;-75
2022/07/18 02:38:24;;;;;;;2.37;1.40;;;15.80;51.10;;;;;;939279;152;27335;-74
2022/07/18 02:40:50;;;;;;;1.40;1.30;;;15.80;51.20;;;;;;939320;152;27358;-76
2022/07/18 02:43:17;;;;;;;1.50;1.40;;;15.70;51.30;;;;;;939812;152;27318;-76
2022/07/18 02:45:43;;;;;;;2.77;1.47;;;15.70;51.40;;;;;;940056;148;27378;-76
2022/07/18 02:48:10;;;;;;;1.50;1.40;;;15.60;51.60;;;;;;939969;152;27393;-76
2022/07/18 02:50:37;;;;;;;1.37;1.27;;;15.60;51.70;;;;;;923803;153;27234;-76
2022/07/18 02:53:03;;;;;;;1.00;1.00;;;15.60;51.80;;;;;;924915;152;27306;-76
2022/07/18 02:55:30;;;;;;;1.67;1.53;;;15.60;52.00;;;;;;923929;154;27507;-76
2022/07/18 02:57:56;;;;;;;2.17;1.93;;;15.50;52.10;;;;;;923608;155;27390;-76
2022/07/18 03:00:23;;;;;;;1.57;1.47;;;15.50;52.10;;;;;;930135;150;27395;-76
2022/07/18 03:02:50;;;;;;;1.20;1.10;;;15.50;52.20;;;;;;929030;152;27349;-75
2022/07/18 03:05:16;;;;;;;1.50;1.40;;;15.40;52.40;;;;;;932143;152;27417;-76
2022/07/18 03:07:43;;;;;;;2.07;1.57;;;15.40;52.30;;;;;;932101;149;27352;-76
2022/07/18 03:10:09;;;;;;;1.83;1.50;;;15.40;52.70;;;;;;931663;150;27702;-75
2022/07/18 03:12:36;;;;;;;1.60;1.50;;;15.40;52.70;;;;;;938412;150;27377;-76
2022/07/18 03:15:02;;;;;;;2.07;1.50;;;15.30;52.80;;;;;;939253;150;27391;-75
2022/07/18 03:17:29;;;;;;;2.20;1.13;;;15.30;52.90;;;;;;938700;149;27345;-76
2022/07/18 03:19:56;;;;;;;3.93;1.43;;;15.30;53.10;;;;;;938233;150;27406;-76
2022/07/18 03:22:22;;;;;;;2.80;1.47;;;15.30;53.20;;;;;;938361;149;27330;-76
2022/07/18 03:24:49;;;;;;;3.47;1.40;;;15.30;53.30;;;;;;939519;149;27447;-76
2022/07/18 03:27:15;;;;;;;1.70;1.30;;;15.30;53.30;;;;;;938242;150;27328;-76
2022/07/18 03:29:42;;;;;;;1.70;1.27;;;15.20;53.30;;;;;;938206;150;27260;-75
2022/07/18 03:32:09;;;;;;;4.70;2.13;;;15.20;53.40;;;;;;938688;150;27298;-76
2022/07/18 03:34:35;;;;;;;2.00;1.37;;;15.20;53.60;;;;;;934995;151;28019;-75
2022/07/18 03:37:02;;;;;;;1.50;1.40;;;15.20;53.70;;;;;;935280;151;27479;-77
2022/07/18 03:39:28;;;;;;;2.90;1.73;;;15.20;53.80;;;;;;934919;151;28202;-77
2022/07/18 03:41:55;;;;;;;1.83;1.43;;;15.20;53.90;;;;;;934494;151;27411;-78
2022/07/18 03:44:22;;;;;;;1.60;1.50;;;15.20;54.10;;;;;;935225;151;27321;-78
2022/07/18 03:46:50;;;;;;;1.67;1.27;;;15.20;54.20;;;;;;934324;151;27425;-78
2022/07/18 03:49:15;;;;;;;5.07;1.37;;;15.20;54.30;;;;;;936285;151;27352;-77
2022/07/18 03:51:41;;;;;;;1.67;1.40;;;15.20;54.40;;;;;;935609;151;27409;-77
2022/07/18 03:54:09;;;;;;;2.07;1.60;;;15.20;54.40;;;;;;931182;149;27326;-77
2022/07/18 03:56:34;;;;;;;1.60;1.50;;;15.20;54.40;;;;;;931589;149;27300;-77
2022/07/18 03:59:01;;;;;;;1.53;1.43;;;15.20;54.50;;;;;;932865;151;27433;-78
2022/07/18 04:01:28;;;;;;;5.07;2.10;;;15.20;54.60;;;;;;935103;151;28036;-77
2022/07/18 04:03:54;;;;;;;1.50;1.40;;;15.20;54.60;;;;;;937423;151;27473;-77
2022/07/18 04:06:21;;;;;;;1.77;1.63;;;15.20;54.80;;;;;;937386;151;27459;-77
2022/07/18 04:08:47;;;;;;;3.13;1.90;;;15.30;54.90;;;;;;935773;151;27442;-77
2022/07/18 04:11:14;;;;;;;2.97;1.80;;;15.30;55.00;;;;;;938127;151;27375;-77
2022/07/18 04:13:41;;;;;;;2.83;1.63;;;15.40;55.30;;;;;;936691;151;27322;-77
2022/07/18 04:16:07;;;;;;;2.80;1.80;;;15.40;55.20;;;;;;918731;151;27373;-78
2022/07/18 04:18:34;;;;;;;2.80;1.60;;;15.50;56.00;;;;;;933293;149;27379;-77
2022/07/18 04:21:00;;;;;;;2.03;1.80;;;15.60;55.60;;;;;;933730;149;27286;-77
2022/07/18 04:23:27;;;;;;;1.80;1.70;;;15.60;55.80;;;;;;926273;151;27900;-77
2022/07/18 04:25:53;;;;;;;6.63;2.03;;;15.70;55.80;;;;;;943459;150;27326;-75
2022/07/18 04:28:20;;;;;;;4.33;1.73;;;15.80;55.80;;;;;;942902;150;27355;-76
2022/07/18 04:30:47;;;;;;;2.90;1.90;;;15.90;55.70;;;;;;923011;151;27342;-76
2022/07/18 04:33:13;;;;;;;3.10;1.60;;;16.00;55.60;;;;;;922900;151;27329;-75
2022/07/18 04:35:41;;;;;;;1.70;1.60;;;16.10;55.60;;;;;;936701;150;27284;-76
2022/07/18 04:38:06;;;;;;;2.30;1.57;;;16.20;55.60;;;;;;924431;151;27659;-75
2022/07/18 04:40:33;;;;;;;2.03;1.70;;;16.30;55.60;;;;;;932527;151;27340;-76
2022/07/18 04:43:00;;;;;;;1.67;1.33;;;16.40;55.60;;;;;;942885;150;27351;-76
2022/07/18 04:45:26;;;;;;;1.57;1.47;;;16.50;55.60;;;;;;940535;150;28539;-76
2022/07/18 04:47:53;;;;;;;1.43;1.30;;;16.60;56.00;;;;;;939051;150;27406;-76
2022/07/18 04:50:19;;;;;;;2.00;1.47;;;16.70;55.40;;;;;;939547;150;27354;-76
2022/07/18 04:52:46;;;;;;;2.33;1.77;;;16.80;55.50;;;;;;939682;149;27431;-76
2022/07/18 04:55:13;;;;;;;2.93;1.50;;;17.00;55.50;;;;;;940987;150;27413;-76
2022/07/18 04:57:39;;;;;;;2.63;1.60;;;17.10;55.50;;;;;;940241;150;27358;-76
2022/07/18 05:00:09;;;;;;;1.90;1.70;;;17.30;55.70;;;;;;940049;150;27340;-76
2022/07/18 05:02:35;;;;;;;2.00;1.75;;;17.50;55.90;;;;;;932373;150;27500;-76
2022/07/18 05:05:02;;;;;;;2.22;2.02;;;17.90;56.20;;;;;;931131;153;27431;-76
2022/07/18 05:07:29;;;;;;;2.85;1.77;;;18.30;56.60;;;;;;910984;154;27364;-76
2022/07/18 05:09:55;;;;;;;2.20;1.87;;;19.00;57.70;;;;;;925798;151;27366;-76
2022/07/18 05:12:23;;;;;;;1.47;1.37;;;19.70;57.20;;;;;;917813;154;27422;-76
2022/07/18 05:14:48;;;;;;;1.77;1.60;;;20.60;57.00;;;;;;929268;153;27443;-76
2022/07/18 05:17:18;;;;;;;3.15;1.92;;;21.60;56.50;;;;;;928836;153;27380;-76
2022/07/18 05:19:44;;;;;;;2.50;1.60;;;22.70;55.60;;;;;;930524;153;27407;-77
2022/07/18 05:22:11;;;;;;;2.58;1.60;;;23.70;54.50;;;;;;928720;153;27485;-77
2022/07/18 05:24:37;;;;;;;2.12;1.52;;;24.70;53.30;;;;;;929318;153;27381;-76
2022/07/18 05:27:04;;;;;;;2.42;1.80;;;25.80;52.20;;;;;;928154;153;27331;-76
2022/07/18 05:29:31;;;;;;;1.95;1.65;;;26.70;51.00;;;;;;930011;153;27436;-77
2022/07/18 05:31:57;;;;;;;1.67;1.57;;;27.70;49.70;;;;;;928923;153;27389;-77
2022/07/18 05:34:24;;;;;;;1.72;1.62;;;28.60;48.30;;;;;;928873;153;27363;-77
2022/07/18 05:36:50;;;;;;;3.37;1.87;;;29.40;46.90;;;;;;929231;153;28427;-77
2022/07/18 05:39:17;;;;;;;3.58;1.60;;;30.10;45.90;;;;;;933542;152;27413;-77
2022/07/18 05:41:44;;;;;;;2.20;1.60;;;30.80;44.80;;;;;;908426;156;27315;-77
2022/07/18 05:44:10;;;;;;;2.20;1.70;;;31.50;44.00;;;;;;921127;154;27284;-77
2022/07/18 05:46:37;;;;;;;2.10;1.67;;;32.10;43.10;;;;;;927981;151;27398;-77
2022/07/18 05:49:03;;;;;;;1.67;1.50;;;32.70;42.40;;;;;;934231;152;27440;-77
2022/07/18 05:51:30;;;;;;;1.90;1.37;;;33.30;41.70;;;;;;928053;151;27378;-77
2022/07/18 05:53:56;;;;;;;1.55;1.32;;;33.80;41.00;;;;;;912382;153;27305;-77
2022/07/18 05:56:23;;;;;;;2.55;1.40;;;34.40;40.30;;;;;;919636;154;27340;-77
2022/07/18 05:58:50;;;;;;;2.33;1.50;;;34.90;39.50;;;;;;920340;154;27368;-77
2022/07/18 06:01:19;;;;;;;4.70;1.40;;;35.40;38.70;;;;;;910554;154;26331;-78
2022/07/18 06:03:43;;;;;;;2.42;1.70;;;35.80;37.70;;;;;;932348;152;27522;-77
2022/07/18 06:06:09;;;;;;;4.20;1.42;;;36.20;37.10;;;;;;930604;150;27329;-78
2022/07/18 06:08:36;;;;;;;1.57;1.47;;;36.50;36.60;;;;;;939180;149;26191;-77
2022/07/18 06:11:03;;;;;;;4.75;1.77;;;36.80;35.90;;;;;;937913;150;26255;-77
2022/07/18 06:13:29;;;;;;;1.62;1.52;;;37.20;35.70;;;;;;939457;149;26265;-77
2022/07/18 06:15:56;;;;;;;1.40;1.30;;;37.40;35.10;;;;;;936584;151;26283;-76
2022/07/18 06:18:22;;;;;;;2.50;1.42;;;37.70;34.60;;;;;;931502;149;26288;-77
2022/07/18 06:20:49;;;;;;;2.58;1.37;;;38.10;34.20;;;;;;931017;151;26599;-77
2022/07/18 06:23:16;;;;;;;2.22;1.50;;;38.30;33.80;;;;;;933449;152;26256;-77
2022/07/18 06:25:42;;;;;;;1.50;1.40;;;38.60;33.30;;;;;;932669;152;26275;-76
2022/07/18 06:28:09;;;;;;;1.30;1.20;;;39.00;32.80;;;;;;932692;152;26288;-77
2022/07/18 06:30:35;;;;;;;1.95;1.40;;;39.40;32.30;;;;;;920361;152;26270;-76
2022/07/18 06:33:05;;;;;;;3.72;1.50;;;39.80;31.80;;;;;;931852;149;27336;-77
2022/07/18 06:35:28;;;;;;;1.52;1.40;;;40.10;31.70;;;;;;931404;152;26265;-77
2022/07/18 06:37:55;;;;;;;1.80;1.17;;;40.50;31.00;;;;;;931279;152;27445;-77
2022/07/18 06:40:25;;;;;;;2.70;1.20;;;40.80;30.50;;;;;;921027;152;26301;-77
2022/07/18 06:42:48;;;;;;;3.55;1.50;;;41.20;30.00;;;;;;937589;149;26242;-77
2022/07/18 06:45:15;;;;;;;3.12;1.17;;;41.60;29.80;;;;;;937060;149;26240;-77
2022/07/18 06:47:41;;;;;;;5.75;1.37;;;41.90;29.40;;;;;;939043;149;26254;-77
2022/07/18 06:50:08;;;;;;;1.35;1.25;;;42.20;29.00;;;;;;933938;151;26206;-77
2022/07/18 06:52:35;;;;;;;2.15;1.10;;;42.50;28.60;;;;;;934531;151;26382;-77
2022/07/18 06:55:01;;;;;;;4.92;1.30;;;42.70;28.20;;;;;;936592;150;26308;-77
2022/07/18 06:57:28;;;;;;;2.60;1.22;;;43.00;27.80;;;;;;932168;149;26210;-77
2022/07/18 06:59:54;;;;;;;2.92;1.32;;;43.10;27.50;;;;;;932080;152;26288;-78
2022/07/18 07:02:21;;;;;;;4.60;1.27;;;43.40;27.30;;;;;;924297;151;26766;-77
2022/07/18 07:04:48;;;;;;;1.60;1.50;;;43.50;26.80;;;;;;928404;152;26293;-77
2022/07/18 07:07:14;;;;;;;2.98;1.82;;;43.70;26.60;;;;;;928281;152;26615;-78
2022/07/18 07:09:41;;;;;;;1.70;1.22;;;43.80;26.40;;;;;;950877;148;26292;-78
2022/07/18 07:12:07;;;;;;;2.85;1.47;;;43.90;26.20;;;;;;929206;151;26202;-78
2022/07/18 07:14:34;;;;;;;2.15;1.30;;;43.90;26.00;;;;;;942191;151;26318;-77
2022/07/18 07:17:00;;;;;;;1.62;1.30;;;44.10;25.90;;;;;;935362;151;26307;-78
2022/07/18 07:19:27;;;;;;;4.03;1.15;;;44.30;25.60;;;;;;926905;152;26299;-78
2022/07/18 07:21:54;;;;;;;8.85;1.42;;;44.40;25.30;;;;;;950096;148;28457;-79
2022/07/18 07:24:20;;;;;;;3.83;1.25;;;44.40;25.20;;;;;;950807;148;26181;-77
2022/07/18 07:26:47;;;;;;;4.78;1.50;;;44.50;25.10;;;;;;950999;148;26237;-78
2022/07/18 07:29:14;;;;;;;1.30;0.93;;;44.70;25.20;;;;;;950882;149;26290;-77
2022/07/18 07:31:40;;;;;;;2.20;1.30;;;44.80;24.90;;;;;;950319;148;26204;-78
2022/07/18 07:34:07;;;;;;;1.80;1.00;;;45.10;24.80;;;;;;950664;149;26329;-79
2022/07/18 07:36:34;;;;;;;5.83;1.70;;;45.50;24.60;;;;;;950665;148;26287;-78
2022/07/18 07:39:00;;;;;;;6.70;1.30;;;45.70;24.10;;;;;;950541;148;26208;-78
2022/07/18 07:41:27;;;;;;;3.02;1.50;;;46.00;23.90;;;;;;950808;148;26231;-79
2022/07/18 07:43:53;;;;;;;7.92;2.12;;;46.30;23.50;;;;;;951666;148;26732;-78
2022/07/18 07:46:20;;;;;;;5.25;1.50;;;46.60;23.40;;;;;;951360;148;26282;-77
2022/07/18 07:48:47;;;;;;;2.08;1.32;;;46.90;23.30;;;;;;939645;150;26262;-78
2022/07/18 07:51:13;;;;;;;1.80;1.10;;;47.10;22.90;;;;;;933655;150;26313;-78
2022/07/18 07:53:40;;;;;;;3.42;1.35;;;47.30;22.80;;;;;;934655;151;26204;-78
2022/07/18 07:56:06;;;;;;;1.25;1.15;;;47.50;22.60;;;;;;951070;148;26313;-77
2022/07/18 07:58:33;;;;;;;3.02;1.00;;;47.70;22.30;;;;;;951698;148;26631;-77
2022/07/18 08:00:59;;;;;;;1.17;1.07;;;48.00;22.00;;;;;;942012;151;26283;-79
2022/07/18 08:03:26;;;;;;;1.65;1.05;;;48.10;21.60;;;;;;947639;148;26258;-78
2022/07/18 08:05:53;;;;;;;7.28;1.77;;;48.30;21.50;;;;;;937888;150;26230;-78
2022/07/18 08:08:19;;;;;;;2.42;1.57;;;48.40;21.60;;;;;;934545;151;26257;-78
2022/07/18 08:10:47;;;;;;;1.95;1.10;;;48.50;21.20;;;;;;932381;150;26219;-78
2022/07/18 08:13:13;;;;;;;2.80;1.22;;;48.60;21.20;;;;;;921300;152;26262;-78
2022/07/18 08:15:39;;;;;;;2.40;0.85;;;48.70;21.10;;;;;;938404;150;26245;-78
2022/07/18 08:18:06;;;;;;;1.52;0.98;;;48.70;21.00;;;;;;938139;150;26210;-78
2022/07/18 08:20:33;;;;;;;1.32;0.80;;;48.90;21.10;;;;;;937514;149;26224;-78
2022/07/18 08:23:05;;;;;;;2.52;1.10;;;49.10;20.80;;;;;;938244;151;26279;-78
2022/07/18 08:25:31;;;;;;;1.10;1.00;;;49.20;20.70;;;;;;937790;151;26401;-78
2022/07/18 08:27:58;;;;;;;0.80;0.70;;;49.30;20.60;;;;;;935902;150;26357;-79
2022/07/18 08:30:24;;;;;;;2.35;1.00;;;49.40;20.70;;;;;;935110;151;26261;-79
2022/07/18 08:32:51;;;;;;;1.25;0.95;;;49.60;20.50;;;;;;936656;151;26331;-78
2022/07/18 08:35:18;;;;;;;1.22;0.93;;;49.80;20.40;;;;;;919618;152;26254;-78
2022/07/18 08:37:44;;;;;;;1.50;1.07;;;50.10;20.30;;;;;;912198;153;26267;-77
2022/07/18 08:40:11;;;;;;;1.72;1.10;;;50.30;20.20;;;;;;932706;152;26301;-79
2022/07/18 08:42:37;;;;;;;1.37;0.85;;;50.60;20.10;;;;;;932153;152;26339;-79
2022/07/18 08:45:04;;;;;;;1.12;1.02;;;50.80;19.80;;;;;;931529;149;26748;-79
2022/07/18 08:47:31;;;;;;;1.32;0.88;;;51.00;19.60;;;;;;919714;152;26274;-78
2022/07/18 08:49:57;;;;;;;1.12;1.00;;;51.20;19.60;;;;;;931815;149;26346;-79
2022/07/18 08:52:24;;;;;;;1.25;0.80;;;51.30;19.30;;;;;;930592;151;26317;-79
2022/07/18 08:54:50;;;;;;;6.25;1.17;;;51.50;19.30;;;;;;918414;152;26304;-80
2022/07/18 08:57:17;;;;;;;0.85;0.62;;;51.70;19.10;;;;;;921347;152;26243;-79
2022/07/18 08:59:44;;;;;;;2.25;0.85;;;51.80;18.90;;;;;;939006;150;26213;-80
2022/07/18 09:02:10;;;;;;;1.30;0.80;;;51.90;18.80;;;;;;938144;150;26242;-80
2022/07/18 09:04:37;;;;;;;2.25;0.85;;;52.00;18.60;;;;;;945057;149;26302;-79
2022/07/18 09:07:03;;;;;;;1.27;0.80;;;52.10;18.30;;;;;;951215;148;26306;-80
2022/07/18 09:09:30;;;;;;;3.70;1.07;;;52.10;18.30;;;;;;934092;150;26237;-79
2022/07/18 09:11:57;;;;;;;0.65;0.65;;;52.20;18.30;;;;;;943082;151;26600;-79
2022/07/18 09:14:44;;;;;;;2.10;0.95;;;52.20;18.20;;;;;;941183;150;26240;-79
2022/07/18 09:17:14;;;;;;;1.02;0.90;;;52.20;18.00;;;;;;935669;151;26424;-78
2022/07/18 09:19:40;;;;;;;2.45;0.98;;;52.30;17.90;;;;;;932997;151;26285;-79
2022/07/18 09:22:22;;;;;;;1.62;0.93;;;52.30;17.80;;;;;;928964;151;26692;-80
2022/07/18 09:24:57;;;;;;;1.00;0.80;;;52.30;17.80;;;;;;943265;151;26219;-79
2022/07/18 09:27:30;;;;;;;1.95;0.85;;;52.30;17.70;;;;;;943205;151;26201;-79
2022/07/18 09:30:21;;;;;;;0.95;0.88;;;52.30;17.60;;;;;;943734;151;26359;-79
2022/07/18 09:32:48;;;;;;;1.35;0.65;;;52.30;17.40;;;;;;943508;151;26278;-78
2022/07/18 09:35:14;;;;;;;0.70;0.70;;;52.20;17.20;;;;;;943814;150;26250;-80
2022/07/18 09:37:41;;;;;;;2.62;1.05;;;52.00;17.10;;;;;;944026;151;26355;-79
2022/07/18 09:40:16;;;;;;;0.95;0.80;;;51.90;17.00;;;;;;942525;151;26325;-79
2022/07/18 09:42:43;;;;;;;3.92;1.20;;;51.90;17.10;;;;;;944091;151;26648;-78
2022/07/18 09:45:10;;;;;;;0.85;0.82;;;51.70;17.00;;;;;;943971;150;26306;-79
2022/07/18 09:47:48;;;;;;;0.62;0.62;;;51.50;16.80;;;;;;943776;150;26282;-79
2022/07/18 09:50:21;;;;;;;0.98;0.53;;;51.40;16.90;;;;;;939015;149;26249;-79
2022/07/18 09:52:47;;;;;;;1.20;0.70;;;51.20;16.90;;;;;;943216;149;26245;-79
2022/07/18 09:55:13;;;;;;;1.07;0.90;;;51.10;16.90;;;;;;942649;151;26213;-79
2022/07/18 09:57:40;;;;;;;2.10;0.57;;;50.90;16.90;;;;;;943802;151;26306;-77
2022/07/18 10:00:07;;;;;;;0.78;0.60;;;50.80;16.70;;;;;;943800;149;26268;-80
2022/07/18 10:02:33;;;;;;;4.65;1.07;;;50.70;16.90;;;;;;943001;149;26292;-79
2022/07/18 10:05:00;;;;;;;1.22;0.80;;;50.50;16.70;;;;;;941581;150;26331;-80
2022/07/18 10:07:28;;;;;;;3.00;0.82;;;50.30;16.70;;;;;;932489;149;26297;-80
2022/07/18 10:09:53;;;;;;;1.02;0.70;;;50.10;16.70;;;;;;931522;149;26243;-80
2022/07/18 10:12:20;;;;;;;2.15;0.80;;;49.80;16.60;;;;;;931727;151;26298;-80
2022/07/18 10:14:46;;;;;;;0.88;0.88;;;49.60;16.60;;;;;;930328;151;26265;-80
2022/07/18 10:19:54;;;;;;;0.82;0.80;;;49.30;16.60;;;;;;971940;144;37722;-78
2022/07/18 10:22:20;;;;;;;1.50;1.02;;;48.50;16.40;;;;;;953800;148;26636;-78
2022/07/18 10:24:49;;;;;;;1.52;0.95;;;48.00;16.40;;;;;;952568;149;26257;-79
2022/07/18 10:27:13;;;;;;;2.10;0.98;;;47.60;16.30;;;;;;954044;148;26270;-79
2022/07/18 10:29:40;;;;;;;1.42;1.00;;;47.10;16.50;;;;;;951454;148;26300;-79
2022/07/18 10:32:08;;;;;;;3.75;1.10;;;46.60;16.50;;;;;;950523;148;26227;-78
2022/07/18 10:34:33;;;;;;;0.72;0.70;;;46.00;16.60;;;;;;953714;148;26373;-76
2022/07/18 10:37:02;;;;;;;0.88;0.82;;;45.30;16.80;;;;;;953998;149;26219;-78
2022/07/18 10:39:35;;;;;;;1.37;0.90;;;44.70;16.90;;;;;;953977;148;27770;-79
2022/07/18 10:42:02;;;;;;;2.95;0.90;;;44.10;17.20;;;;;;954902;148;27642;-79
2022/07/18 10:44:31;;;;;;;1.12;0.90;;;43.60;17.30;;;;;;953468;149;26292;-78
2022/07/18 10:47:06;;;;;;;1.20;1.15;;;43.20;17.40;;;;;;951575;149;27453;-78
2022/07/18 10:49:48;;;;;;;1.15;1.05;;;42.80;17.50;;;;;;953416;149;27341;-78
2022/07/18 10:52:26;;;;;;;3.20;0.93;;;42.50;17.60;;;;;;948835;149;26345;-79
2022/07/18 10:55:18;;;;;;;0.90;0.90;;;42.10;17.60;;;;;;946726;150;27329;-77
2022/07/18 10:57:44;;;;;;;0.78;0.78;;;41.70;17.70;;;;;;946373;151;26278;-77
2022/07/18 11:00:14;;;;;;;4.53;0.85;;;41.30;17.70;;;;;;944686;151;26275;-78
2022/07/18 11:02:46;;;;;;;1.05;0.90;;;40.80;18.00;;;;;;945849;151;27453;-78
2022/07/18 11:05:25;;;;;;;2.92;1.12;;;40.50;18.20;;;;;;946831;151;27345;-79
2022/07/18 11:08:04;;;;;;;0.70;0.70;;;40.10;18.20;;;;;;946467;151;26763;-78
2022/07/18 11:10:47;;;;;;;0.90;0.90;;;39.80;18.40;;;;;;945776;151;26247;-77
2022/07/18 11:13:34;;;;;;;1.27;0.72;;;39.40;18.50;;;;;;946276;151;27329;-76
2022/07/18 11:16:21;;;;;;;0.47;0.47;;;39.10;18.60;;;;;;947064;151;26255;-78
2022/07/18 11:18:49;;;;;;;1.40;0.90;;;38.70;18.80;;;;;;947828;150;26259;-78
2022/07/18 11:21:20;;;;;;;3.12;0.82;;;38.50;19.00;;;;;;953479;150;27421;-77
2022/07/18 11:23:46;;;;;;;1.20;1.10;;;38.30;19.10;;;;;;952886;148;26223;-78
2022/07/18 11:26:16;;;;;;;1.12;0.65;;;38.20;19.30;;;;;;952917;149;27294;-78
2022/07/18 11:28:43;;;;;;;1.98;1.20;;;38.10;19.50;;;;;;953366;150;27404;-76
2022/07/18 11:31:09;;;;;;;0.80;0.80;;;38.10;19.60;;;;;;953436;148;27415;-77
2022/07/18 11:33:36;;;;;;;1.42;0.70;;;38.00;19.60;;;;;;952962;150;27393;-78
2022/07/18 11:36:02;;;;;;;0.90;0.90;;;38.00;19.80;;;;;;952655;149;27306;-78
2022/07/18 11:38:29;;;;;;;1.92;1.00;;;37.90;19.70;;;;;;952394;149;26249;-78
2022/07/18 11:40:56;;;;;;;0.75;0.75;;;37.90;19.70;;;;;;953655;148;27272;-78
2022/07/18 11:43:22;;;;;;;1.37;0.90;;;37.90;19.80;;;;;;952924;148;26251;-76
2022/07/18 11:45:49;;;;;;;0.93;0.70;;;37.70;20.30;;;;;;953233;150;27330;-77
2022/07/18 11:48:22;;;;;;;1.05;0.98;;;37.70;19.80;;;;;;950076;149;27301;-77
2022/07/18 11:50:48;;;;;;;2.08;1.00;;;37.60;19.90;;;;;;953183;148;27397;-78
2022/07/18 11:53:14;;;;;;;1.30;1.10;;;37.40;20.10;;;;;;953076;148;27318;-78
2022/07/18 11:55:41;;;;;;;1.47;0.68;;;37.30;20.10;;;;;;951556;148;27332;-78
2022/07/18 11:58:10;;;;;;;1.00;1.00;;;37.20;20.20;;;;;;953203;150;28862;-78
2022/07/18 12:00:37;;;;;;;1.02;0.82;;;37.10;20.40;;;;;;952405;150;27289;-78
2022/07/18 12:03:09;;;;;;;0.90;0.90;;;37.00;20.40;;;;;;952733;148;27395;-77
2022/07/18 12:05:38;;;;;;;0.82;0.82;;;36.90;20.40;;;;;;952932;149;27342;-77
2022/07/18 12:08:32;;;;;;;1.15;1.02;;;36.80;20.40;;;;;;952442;149;27319;-76
2022/07/18 12:11:26;;;;;;;2.50;0.75;;;36.70;20.60;;;;;;952510;148;27390;-78
2022/07/18 12:13:55;;;;;;;2.40;0.90;;;36.60;20.50;;;;;;952878;150;27283;-78
2022/07/18 12:16:43;;;;;;;1.05;0.75;;;36.60;20.70;;;;;;952195;149;27290;-78
2022/07/18 12:19:12;;;;;;;1.60;0.75;;;36.60;20.70;;;;;;953398;149;27382;-77
2022/07/18 12:21:48;;;;;;;1.40;0.98;;;36.60;21.00;;;;;;952508;149;27860;-78
2022/07/18 12:24:39;;;;;;;1.00;0.82;;;36.70;21.00;;;;;;952705;150;27379;-77
2022/07/18 12:27:16;;;;;;;1.05;0.95;;;36.80;21.10;;;;;;952955;150;27288;-78
2022/07/18 12:29:59;;;;;;;1.00;0.95;;;36.80;21.00;;;;;;952146;150;27256;-77
2022/07/18 12:32:26;;;;;;;1.67;0.78;;;36.90;21.00;;;;;;953521;148;27299;-77
2022/07/18 12:35:01;;;;;;;0.98;0.90;;;36.90;21.00;;;;;;952797;149;27339;-78
2022/07/18 12:37:29;;;;;;;1.07;0.70;;;36.90;21.00;;;;;;952673;150;27342;-78
2022/07/18 12:39:58;;;;;;;1.07;0.98;;;36.80;21.00;;;;;;953441;150;27304;-78
2022/07/18 12:42:27;;;;;;;2.08;1.32;;;36.80;21.40;;;;;;951704;149;27392;-78
2022/07/18 12:44:53;;;;;;;4.20;0.78;;;36.70;21.00;;;;;;953391;149;27353;-78
2022/07/18 12:47:20;;;;;;;3.58;0.93;;;36.60;21.00;;;;;;952457;148;28085;-79
2022/07/18 12:49:47;;;;;;;0.88;0.88;;;36.60;21.10;;;;;;953305;150;27354;-79
2022/07/18 12:52:13;;;;;;;0.93;0.72;;;36.50;21.10;;;;;;951762;150;27351;-79
2022/07/18 12:54:40;;;;;;;1.50;1.07;;;36.50;21.20;;;;;;953345;148;27299;-78
2022/07/18 12:57:06;;;;;;;3.30;1.20;;;36.40;21.20;;;;;;946922;149;27349;-77